FGOOB LFRK-LFPB
Flight info
| Callsign | FGOOB |
|---|---|
| Flight time | 0h 36m |
| Altitude | 11000 |
| Route | PEXIR |
| Aircraft | TBM8/L-SDFGRWY/S |
Departure
| Time | 2026-05-04 19:52 |
|---|---|
| Airport | Caen Carpiquet airport (LFRK) |
Arrival
| Time | 2026-05-04 20:28 |
|---|---|
| Airport | Paris-Le Bourget International Airport (LFPB) |
| Time | Latitude | Longitude | Altitude | Speed | Heading |
|---|---|---|---|---|---|
| 2026-05-04 19:45 | 49.18191 | -0.46023 | 238 ft | 10 kts | 215° |
| 2026-05-04 19:46 | 49.18149 | -0.46069 | 238 ft | 16 kts | 214° |
| 2026-05-04 19:46 | 49.18059 | -0.46167 | 238 ft | 15 kts | 214° |
| 2026-05-04 19:46 | 49.18014 | -0.46214 | 238 ft | 0 kts | 215° |
| 2026-05-04 19:47 | 49.17979 | -0.46252 | 238 ft | 12 kts | 216° |
| 2026-05-04 19:47 | 49.17914 | -0.46247 | 238 ft | 13 kts | 125° |
| 2026-05-04 19:48 | 49.17839 | -0.46085 | 236 ft | 24 kts | 126° |
| 2026-05-04 19:48 | 49.17733 | -0.45860 | 238 ft | 27 kts | 125° |
| 2026-05-04 19:48 | 49.17625 | -0.45627 | 242 ft | 27 kts | 126° |
| 2026-05-04 19:48 | 49.17518 | -0.45396 | 244 ft | 26 kts | 123° |
| 2026-05-04 19:49 | 49.17413 | -0.45169 | 245 ft | 26 kts | 124° |
| 2026-05-04 19:49 | 49.17309 | -0.44943 | 243 ft | 26 kts | 125° |
| 2026-05-04 19:49 | 49.17203 | -0.44717 | 239 ft | 26 kts | 126° |
| 2026-05-04 19:49 | 49.17152 | -0.44552 | 237 ft | 11 kts | 86° |
| 2026-05-04 19:50 | 49.17138 | -0.44530 | 236 ft | 1 kts | 206° |
| 2026-05-04 19:50 | 49.17129 | -0.44542 | 237 ft | 6 kts | 246° |
| 2026-05-04 19:50 | 49.17151 | -0.44603 | 237 ft | 0 kts | 303° |
| 2026-05-04 19:51 | 49.17167 | -0.44639 | 237 ft | 17 kts | 306° |
| 2026-05-04 19:51 | 49.17311 | -0.44945 | 243 ft | 53 kts | 304° |
| 2026-05-04 19:51 | 49.17621 | -0.45630 | 281 ft | 101 kts | 307° |
| 2026-05-04 19:51 | 49.18075 | -0.46588 | 580 ft | 120 kts | 308° |
| 2026-05-04 19:52 | 49.18595 | -0.47692 | 885 ft | 142 kts | 304° |
| 2026-05-04 19:52 | 49.19194 | -0.49069 | 938 ft | 168 kts | 305° |
| 2026-05-04 19:52 | 49.19843 | -0.50544 | 1305 ft | 168 kts | 304° |
| 2026-05-04 19:52 | 49.20487 | -0.52049 | 1745 ft | 166 kts | 306° |
| 2026-05-04 19:53 | 49.21112 | -0.53492 | 2272 ft | 161 kts | 306° |
| 2026-05-04 19:53 | 49.21755 | -0.54979 | 2633 ft | 171 kts | 305° |
| 2026-05-04 19:53 | 49.22397 | -0.56497 | 3170 ft | 170 kts | 305° |
| 2026-05-04 19:53 | 49.22997 | -0.58061 | 3619 ft | 173 kts | 292° |
| 2026-05-04 19:54 | 49.22944 | -0.59871 | 4147 ft | 176 kts | 243° |
| 2026-05-04 19:54 | 49.22080 | -0.61097 | 4691 ft | 175 kts | 199° |
| 2026-05-04 19:54 | 49.20903 | -0.61107 | 5191 ft | 171 kts | 155° |
| 2026-05-04 19:54 | 49.20053 | -0.59926 | 5690 ft | 167 kts | 114° |
| 2026-05-04 19:55 | 49.19706 | -0.58238 | 6182 ft | 168 kts | 102° |
| 2026-05-04 19:55 | 49.19388 | -0.56518 | 6676 ft | 169 kts | 103° |
| 2026-05-04 19:55 | 49.19064 | -0.54785 | 7159 ft | 170 kts | 103° |
| 2026-05-04 19:55 | 49.18741 | -0.53043 | 7631 ft | 171 kts | 103° |
| 2026-05-04 19:56 | 49.18412 | -0.51281 | 8109 ft | 173 kts | 103° |
| 2026-05-04 19:56 | 49.18081 | -0.49508 | 8582 ft | 174 kts | 103° |
| 2026-05-04 19:56 | 49.17745 | -0.47719 | 9060 ft | 176 kts | 103° |
| 2026-05-04 19:56 | 49.17408 | -0.45919 | 9554 ft | 177 kts | 103° |
| 2026-05-04 19:57 | 49.17205 | -0.44071 | 10015 ft | 177 kts | 94° |
| 2026-05-04 19:57 | 49.17074 | -0.42197 | 10451 ft | 178 kts | 95° |
| 2026-05-04 19:57 | 49.16928 | -0.40315 | 10897 ft | 178 kts | 95° |
| 2026-05-04 19:57 | 49.16774 | -0.38336 | 10989 ft | 199 kts | 96° |
| 2026-05-04 19:58 | 49.16596 | -0.36138 | 11002 ft | 217 kts | 96° |
| 2026-05-04 19:58 | 49.16409 | -0.33781 | 11002 ft | 230 kts | 96° |
| 2026-05-04 19:58 | 49.16213 | -0.31306 | 11008 ft | 238 kts | 96° |
| 2026-05-04 19:58 | 49.16012 | -0.28758 | 11006 ft | 244 kts | 96° |
| 2026-05-04 19:59 | 49.15805 | -0.26162 | 11001 ft | 248 kts | 96° |
| 2026-05-04 19:59 | 49.15596 | -0.23538 | 11000 ft | 250 kts | 96° |
| 2026-05-04 19:59 | 49.15385 | -0.20894 | 10999 ft | 251 kts | 96° |
| 2026-05-04 19:59 | 49.15172 | -0.18240 | 11000 ft | 252 kts | 96° |
| 2026-05-04 20:00 | 49.14959 | -0.15580 | 11000 ft | 253 kts | 96° |
| 2026-05-04 20:00 | 49.14746 | -0.12915 | 10997 ft | 253 kts | 96° |
| 2026-05-04 20:00 | 49.14529 | -0.10253 | 11005 ft | 253 kts | 96° |
| 2026-05-04 20:00 | 49.14313 | -0.07588 | 11003 ft | 253 kts | 96° |
| 2026-05-04 20:01 | 49.14111 | -0.04920 | 11002 ft | 253 kts | 93° |
| 2026-05-04 20:01 | 49.14220 | -0.02249 | 10996 ft | 253 kts | 81° |
| 2026-05-04 20:01 | 49.14505 | 0.00397 | 10983 ft | 252 kts | 81° |
| 2026-05-04 20:01 | 49.14711 | 0.03053 | 10977 ft | 252 kts | 85° |
| 2026-05-04 20:02 | 49.14833 | 0.05717 | 10981 ft | 251 kts | 85° |
| 2026-05-04 20:02 | 49.14972 | 0.08376 | 10980 ft | 251 kts | 84° |
| 2026-05-04 20:02 | 49.15127 | 0.11029 | 10979 ft | 251 kts | 84° |
| 2026-05-04 20:02 | 49.15282 | 0.13679 | 10979 ft | 250 kts | 84° |
| 2026-05-04 20:03 | 49.15427 | 0.16327 | 10978 ft | 250 kts | 85° |
| 2026-05-04 20:03 | 49.15573 | 0.18968 | 10970 ft | 249 kts | 84° |
| 2026-05-04 20:03 | 49.15720 | 0.21606 | 10969 ft | 249 kts | 84° |
| 2026-05-04 20:03 | 49.15865 | 0.24242 | 10967 ft | 249 kts | 84° |
| 2026-05-04 20:04 | 49.16013 | 0.26873 | 10967 ft | 248 kts | 84° |
| 2026-05-04 20:04 | 49.16157 | 0.29502 | 10969 ft | 248 kts | 84° |
| 2026-05-04 20:04 | 49.16299 | 0.32121 | 10970 ft | 247 kts | 84° |
| 2026-05-04 20:04 | 49.16442 | 0.34735 | 10969 ft | 247 kts | 84° |
| 2026-05-04 20:05 | 49.16581 | 0.37342 | 10961 ft | 246 kts | 85° |
| 2026-05-04 20:05 | 49.16722 | 0.39940 | 10960 ft | 245 kts | 85° |
| 2026-05-04 20:05 | 49.16863 | 0.42535 | 10958 ft | 245 kts | 84° |
| 2026-05-04 20:05 | 49.17003 | 0.45130 | 10959 ft | 245 kts | 85° |
| 2026-05-04 20:06 | 49.17139 | 0.47688 | 10958 ft | 245 kts | 85° |
| 2026-05-04 20:06 | 49.17277 | 0.50288 | 10959 ft | 246 kts | 85° |
| 2026-05-04 20:06 | 49.17415 | 0.52892 | 10959 ft | 246 kts | 85° |
| 2026-05-04 20:06 | 49.17553 | 0.55498 | 10957 ft | 247 kts | 85° |
| 2026-05-04 20:07 | 49.17690 | 0.58114 | 10960 ft | 247 kts | 85° |
| 2026-05-04 20:07 | 49.17827 | 0.60737 | 10957 ft | 248 kts | 85° |
| 2026-05-04 20:07 | 49.17963 | 0.63367 | 10961 ft | 248 kts | 85° |
| 2026-05-04 20:07 | 49.18098 | 0.65998 | 10961 ft | 248 kts | 85° |
| 2026-05-04 20:08 | 49.18235 | 0.68632 | 10962 ft | 249 kts | 85° |
| 2026-05-04 20:08 | 49.18370 | 0.71267 | 10963 ft | 249 kts | 85° |
| 2026-05-04 20:08 | 49.18404 | 0.73905 | 10957 ft | 249 kts | 94° |
| 2026-05-04 20:08 | 49.18166 | 0.76525 | 10957 ft | 249 kts | 98° |
| 2026-05-04 20:09 | 49.17939 | 0.79151 | 10957 ft | 249 kts | 95° |
| 2026-05-04 20:09 | 49.17808 | 0.81787 | 10957 ft | 249 kts | 93° |
| 2026-05-04 20:09 | 49.17680 | 0.84422 | 10955 ft | 249 kts | 94° |
| 2026-05-04 20:09 | 49.17531 | 0.87056 | 10957 ft | 249 kts | 94° |
| 2026-05-04 20:10 | 49.17381 | 0.89684 | 10956 ft | 248 kts | 95° |
| 2026-05-04 20:10 | 49.17234 | 0.92316 | 10959 ft | 248 kts | 95° |
| 2026-05-04 20:10 | 49.16966 | 0.94913 | 10955 ft | 248 kts | 105° |
| 2026-05-04 20:10 | 49.16345 | 0.97382 | 10958 ft | 249 kts | 112° |
| 2026-05-04 20:11 | 49.15664 | 0.99817 | 10961 ft | 249 kts | 111° |
| 2026-05-04 20:11 | 49.15073 | 1.02298 | 10960 ft | 248 kts | 108° |
| 2026-05-04 20:11 | 49.14533 | 1.04796 | 10959 ft | 248 kts | 108° |
| 2026-05-04 20:11 | 49.13981 | 1.07248 | 10963 ft | 247 kts | 108° |
| 2026-05-04 20:12 | 49.13411 | 1.09722 | 10957 ft | 247 kts | 108° |
| 2026-05-04 20:12 | 49.12845 | 1.12192 | 10957 ft | 246 kts | 109° |
| 2026-05-04 20:12 | 49.12284 | 1.14654 | 10960 ft | 245 kts | 108° |
| 2026-05-04 20:12 | 49.11721 | 1.17111 | 10970 ft | 245 kts | 108° |
| 2026-05-04 20:13 | 49.11160 | 1.19563 | 10954 ft | 244 kts | 108° |
| 2026-05-04 20:13 | 49.10598 | 1.22009 | 10962 ft | 244 kts | 108° |
| 2026-05-04 20:13 | 49.10037 | 1.24458 | 10954 ft | 244 kts | 108° |
| 2026-05-04 20:13 | 49.09475 | 1.26898 | 10954 ft | 243 kts | 108° |
| 2026-05-04 20:14 | 49.08916 | 1.29330 | 10961 ft | 243 kts | 108° |
| 2026-05-04 20:14 | 49.08357 | 1.31752 | 10961 ft | 241 kts | 108° |
| 2026-05-04 20:14 | 49.07798 | 1.34164 | 10962 ft | 242 kts | 109° |
| 2026-05-04 20:14 | 49.07244 | 1.36580 | 10962 ft | 241 kts | 109° |
| 2026-05-04 20:15 | 49.06685 | 1.38999 | 10956 ft | 242 kts | 109° |
| 2026-05-04 20:15 | 49.06123 | 1.41417 | 10955 ft | 242 kts | 109° |
| 2026-05-04 20:15 | 49.05561 | 1.43840 | 10955 ft | 242 kts | 109° |
| 2026-05-04 20:15 | 49.05000 | 1.46258 | 10955 ft | 242 kts | 109° |
| 2026-05-04 20:16 | 49.04440 | 1.48670 | 10952 ft | 241 kts | 109° |
| 2026-05-04 20:16 | 49.03881 | 1.51075 | 10952 ft | 240 kts | 109° |
| 2026-05-04 20:16 | 49.03323 | 1.53471 | 10956 ft | 240 kts | 109° |
| 2026-05-04 20:16 | 49.02765 | 1.55863 | 10951 ft | 239 kts | 109° |
| 2026-05-04 20:17 | 49.02209 | 1.58247 | 10950 ft | 238 kts | 109° |
| 2026-05-04 20:17 | 49.01653 | 1.60624 | 10952 ft | 238 kts | 109° |
| 2026-05-04 20:17 | 49.01088 | 1.63042 | 10660 ft | 248 kts | 109° |
| 2026-05-04 20:17 | 49.00497 | 1.65558 | 10299 ft | 255 kts | 109° |
| 2026-05-04 20:18 | 48.99894 | 1.68121 | 9950 ft | 258 kts | 109° |
| 2026-05-04 20:18 | 48.99296 | 1.70667 | 9552 ft | 260 kts | 109° |
| 2026-05-04 20:18 | 48.98688 | 1.73281 | 9139 ft | 264 kts | 109° |
| 2026-05-04 20:18 | 48.98068 | 1.75932 | 8722 ft | 268 kts | 109° |
| 2026-05-04 20:19 | 48.97438 | 1.78610 | 8314 ft | 270 kts | 109° |
| 2026-05-04 20:19 | 48.96789 | 1.81334 | 7903 ft | 270 kts | 109° |
| 2026-05-04 20:19 | 48.96159 | 1.83987 | 7511 ft | 270 kts | 109° |
| 2026-05-04 20:19 | 48.95524 | 1.86666 | 7116 ft | 269 kts | 109° |
| 2026-05-04 20:20 | 48.94894 | 1.89336 | 6736 ft | 267 kts | 109° |
| 2026-05-04 20:20 | 48.94264 | 1.91991 | 6348 ft | 266 kts | 109° |
| 2026-05-04 20:20 | 48.93637 | 1.94631 | 5937 ft | 265 kts | 109° |
| 2026-05-04 20:20 | 48.93012 | 1.97250 | 5532 ft | 263 kts | 109° |
| 2026-05-04 20:21 | 48.92393 | 1.99855 | 5127 ft | 261 kts | 109° |
| 2026-05-04 20:21 | 48.91778 | 2.02449 | 4729 ft | 260 kts | 109° |
| 2026-05-04 20:21 | 48.90554 | 2.07580 | 3933 ft | 256 kts | 108° |
| 2026-05-04 20:22 | 48.89947 | 2.10117 | 3557 ft | 255 kts | 108° |
| 2026-05-04 20:22 | 48.89399 | 2.12668 | 3178 ft | 253 kts | 101° |
| 2026-05-04 20:22 | 48.89303 | 2.15283 | 3010 ft | 243 kts | 82° |
| 2026-05-04 20:22 | 48.89745 | 2.17689 | 3004 ft | 233 kts | 65° |
| 2026-05-04 20:23 | 48.90426 | 2.19892 | 3002 ft | 229 kts | 65° |
| 2026-05-04 20:23 | 48.91037 | 2.22124 | 2946 ft | 231 kts | 68° |
| 2026-05-04 20:23 | 48.91608 | 2.24338 | 2681 ft | 213 kts | 69° |
| 2026-05-04 20:23 | 48.92131 | 2.26336 | 2420 ft | 192 kts | 67° |
| 2026-05-04 20:24 | 48.92598 | 2.28040 | 2185 ft | 158 kts | 66° |
| 2026-05-04 20:24 | 48.92983 | 2.29432 | 1989 ft | 131 kts | 66° |
| 2026-05-04 20:24 | 48.93317 | 2.30637 | 1824 ft | 118 kts | 66° |
| 2026-05-04 20:24 | 48.93637 | 2.31771 | 1668 ft | 115 kts | 65° |
| 2026-05-04 20:25 | 48.93922 | 2.32844 | 1509 ft | 104 kts | 66° |
| 2026-05-04 20:25 | 48.94189 | 2.33823 | 1389 ft | 97 kts | 66° |
| 2026-05-04 20:25 | 48.94435 | 2.34737 | 1290 ft | 90 kts | 64° |
| 2026-05-04 20:25 | 48.94696 | 2.35640 | 1158 ft | 95 kts | 65° |
| 2026-05-04 20:26 | 48.94936 | 2.36586 | 1015 ft | 97 kts | 68° |
| 2026-05-04 20:26 | 48.95165 | 2.37552 | 865 ft | 97 kts | 67° |
| 2026-05-04 20:26 | 48.95429 | 2.38501 | 726 ft | 96 kts | 65° |
| 2026-05-04 20:26 | 48.95687 | 2.39418 | 605 ft | 95 kts | 66° |
| 2026-05-04 20:27 | 48.95932 | 2.40339 | 482 ft | 95 kts | 67° |
| 2026-05-04 20:27 | 48.96191 | 2.41268 | 351 ft | 96 kts | 66° |
| 2026-05-04 20:27 | 48.96435 | 2.42206 | 218 ft | 93 kts | 68° |
| 2026-05-04 20:27 | 48.96655 | 2.43021 | 173 ft | 71 kts | 68° |
| 2026-05-04 20:28 | 48.96813 | 2.43624 | 178 ft | 53 kts | 68° |
| 2026-05-04 20:28 | 48.96927 | 2.44048 | 191 ft | 31 kts | 68° |
| 2026-05-04 20:28 | 48.96949 | 2.44172 | 190 ft | 11 kts | 93° |
| 2026-05-04 20:28 | 48.96942 | 2.44254 | 191 ft | 11 kts | 109° |
| 2026-05-04 20:29 | 48.96917 | 2.44329 | 191 ft | 6 kts | 128° |
| 2026-05-04 20:29 | 48.96886 | 2.44370 | 196 ft | 1 kts | 147° |
| 2026-05-04 20:29 | 48.96885 | 2.44371 | 196 ft | 1 kts | 147° |
| 2026-05-04 20:30 | 48.96881 | 2.44375 | 195 ft | 0 kts | 148° |
| 2026-05-04 20:30 | 48.96849 | 2.44398 | 190 ft | 11 kts | 160° |
| 2026-05-04 20:30 | 48.96769 | 2.44428 | 187 ft | 11 kts | 163° |
| 2026-05-04 20:30 | 48.96680 | 2.44472 | 179 ft | 16 kts | 162° |
| 2026-05-04 20:31 | 48.96587 | 2.44517 | 176 ft | 7 kts | 163° |
| 2026-05-04 20:31 | 48.96524 | 2.44536 | 176 ft | 12 kts | 173° |
| 2026-05-04 20:31 | 48.96438 | 2.44547 | 172 ft | 8 kts | 175° |
| 2026-05-04 20:31 | 48.96433 | 2.44548 | 172 ft | 0 kts | 174° |
| 2026-05-04 20:33 | 48.96429 | 2.44548 | 171 ft | 2 kts | 174° |
| 2026-05-04 20:33 | 48.96404 | 2.44551 | 170 ft | 7 kts | 181° |
| 2026-05-04 20:33 | 48.96344 | 2.44512 | 168 ft | 10 kts | 204° |
| 2026-05-04 20:33 | 48.96267 | 2.44458 | 167 ft | 14 kts | 204° |
| 2026-05-04 20:34 | 48.96182 | 2.44397 | 162 ft | 13 kts | 204° |
| 2026-05-04 20:34 | 48.96113 | 2.44348 | 159 ft | 8 kts | 205° |
| 2026-05-04 20:34 | 48.96065 | 2.44316 | 158 ft | 8 kts | 203° |
| 2026-05-04 20:34 | 48.96000 | 2.44270 | 157 ft | 13 kts | 205° |
| 2026-05-04 20:35 | 48.95890 | 2.44194 | 152 ft | 21 kts | 205° |
| 2026-05-04 20:35 | 48.95773 | 2.44111 | 151 ft | 14 kts | 205° |
| 2026-05-04 20:35 | 48.95714 | 2.44070 | 151 ft | 9 kts | 204° |
| 2026-05-04 20:35 | 48.95651 | 2.44040 | 150 ft | 9 kts | 135° |
| 2026-05-04 20:36 | 48.95624 | 2.44110 | 150 ft | 8 kts | 113° |
| 2026-05-04 20:36 | 48.95608 | 2.44167 | 150 ft | 3 kts | 112° |
| 2026-05-04 20:36 | 48.95603 | 2.44184 | 150 ft | 0 kts | 117° |